Latest Weather Observations for Oakey

IDQ60901

Issued at 4:51 pm EST Tuesday 26 May 2020 (issued every 10 minutes, with the page automatically refreshed every 10 minutes)

About weather observations | Map of Brisbane area stations | Latest observations for Brisbane area | Other Formats
Station Details ID: 041359 Name: OAKEY AERO Lat: -27.40 Lon: 151.74 Height: 405.69 m
Data from the previous 72 hours. | See also: Recent months at Oakey
Date/Time
EST
Temp
°C
App
Temp
°C
Dew
Point
°C
Rel
Hum
%
Delta-T
°C
Wind Press
QNH
hPa
Press
MSL
hPa
Rain since
9am
mm
Dir  Spd
km/h
Gust
km/h
Spd
kts
Gust
kts
26/04:30pm 18.9 15.5 3.9 37 7.3 SSW 11 15 6 8 1017.6 1016.9 0.0
26/04:00pm 19.5 15.7 4.0 36 7.5 WSW 13 17 7 9 1017.5 1016.8 0.0
26/03:30pm 19.7 15.5 3.8 35 7.7 W 15 20 8 11 1017.5 1016.8 0.0
26/03:00pm 20.2 17.5 5.4 38 7.4 W 9 17 5 9 1017.5 1016.8 0.0
26/02:30pm 19.4 15.7 4.7 38 7.2 SSW 13 19 7 10 1017.6 1016.9 0.0
26/02:00pm 20.0 16.8 6.7 42 6.8 WSW 13 22 7 12 1017.6 1016.9 0.0
26/01:30pm 19.0 15.4 6.8 45 6.3 W 15 24 8 13 1017.7 1017.0 0.0
26/01:00pm 18.9 16.0 6.4 44 6.3 WSW 11 19 6 10 1017.9 1017.2 0.0
26/12:30pm 18.5 15.0 7.0 47 5.9 SW 15 20 8 11 1018.0 1017.4 0.0
26/12:00pm 17.8 14.0 7.5 51 5.3 SSW 17 24 9 13 1018.3 1017.6 0.0
26/11:30am 17.1 14.0 8.8 58 4.4 SSW 15 26 8 14 1018.9 1018.2 0.0
26/11:00am 15.5 13.3 9.4 67 3.2 SW 11 19 6 10 1019.6 1018.9 0.0
26/10:30am 14.8 11.1 9.4 70 2.8 WSW 19 24 10 13 1020.1 1019.4 0.0
26/10:00am 13.6 11.4 9.3 75 2.2 WSW 11 17 6 9 1020.5 1019.9 0.0
26/09:30am 11.9 9.4 8.4 79 1.8 W 11 15 6 8 1021.0 1020.3 0.0
26/09:00am 10.8 8.9 7.7 81 1.5 W 7 11 4 6 1020.6 1020.0 0.0
26/08:30am 9.5 7.7 7.9 90 0.8 N 7 9 4 5 1020.8 1020.1 0.0
26/08:00am 7.5 6.8 7.1 97 0.2 CALM 0 0 0 0 1020.5 1019.9 0.0
26/07:30am 4.5 2.8 4.1 97 0.2 E 2 6 1 3 1020.4 1019.8 0.0
26/07:00am 2.2 -0.8 1.8 97 0.2 E 7 9 4 5 1020.0 1019.3 0.0
26/06:30am 1.6 -0.6 1.2 97 0.2 E 2 7 1 4 1019.6 1018.9 0.0
26/06:00am 1.8 0.0 1.4 97 0.2 CALM 0 0 0 0 1019.3 1018.6 0.0
26/05:30am 1.9 0.1 1.3 96 0.2 CALM 0 0 0 0 1019.0 1018.3 0.0
26/05:00am 2.9 1.3 2.3 96 0.2 CALM 0 0 0 0 1018.9 1018.2 0.0
26/04:30am 2.9 1.3 2.3 96 0.2 CALM 0 0 0 0 1018.6 1017.9 0.0
26/04:00am 3.9 1.4 3.5 97 0.2 WNW 6 7 3 4 1018.5 1017.8 0.0
26/03:30am 3.9 1.3 3.2 95 0.3 N 6 7 3 4 1018.6 1017.9 0.0
26/03:00am 4.3 2.1 3.4 94 0.4 NNE 4 7 2 4 1018.6 1017.9 0.0
26/02:30am 4.6 3.2 3.3 91 0.5 CALM 0 0 0 0 1018.5 1017.8 0.0
26/02:00am 6.4 4.1 5.0 91 0.6 N 6 6 3 3 1018.6 1017.9 0.0
26/01:30am 6.9 4.5 5.1 88 0.8 W 7 9 4 5 1018.7 1018.0 0.0
26/01:00am 7.5 3.7 6.0 90 0.7 W 15 15 8 8 1018.7 1018.0 0.0
26/12:30am 6.9 3.3 5.2 89 0.8 W 13 13 7 7 1018.6 1017.9 0.0
26/12:00am 8.0 4.6 6.1 88 0.9 WSW 13 13 7 7 1018.7 1018.0 0.0
 
Date/Time
EST
Temp
°C
App
Temp
°C
Dew
Point
°C
Rel
Hum
%
Delta-T
°C
Wind Press
QNH
hPa
Press
MSL
hPa
Rain since
9am
mm
Dir  Spd
km/h
Gust
km/h
Spd
kts
Gust
kts
25/11:30pm 8.0 4.2 6.0 87 0.9 W 15 15 8 8 1018.6 1017.9 0.0
25/11:00pm 9.2 6.6 6.1 81 1.5 WSW 9 11 5 6 1018.6 1017.9 0.0
25/10:30pm 8.8 5.9 6.4 85 1.1 WSW 11 13 6 7 1018.5 1017.8 0.0
25/10:00pm 9.4 6.2 6.8 84 1.2 WSW 13 15 7 8 1018.5 1017.8 0.0
25/09:30pm 10.9 7.4 7.2 78 1.8 WSW 15 15 8 8 1018.4 1017.7 0.0
25/09:00pm 12.2 8.6 6.7 69 2.7 SSW 15 19 8 10 1018.3 1017.6 0.0
25/08:30pm 12.8 8.8 6.6 66 3.0 SW 17 20 9 11 1018.0 1017.4 0.0
25/08:00pm 12.5 9.0 7.4 71 2.5 WSW 15 17 8 9 1018.0 1017.4 0.0
25/07:30pm 12.7 9.6 7.4 70 2.6 WSW 13 15 7 8 1017.8 1017.1 0.0
25/07:00pm 13.1 10.6 6.5 64 3.2 SW 9 13 5 7 1017.7 1017.0 0.0
25/06:30pm 14.4 11.5 6.3 58 4.0 SW 11 15 6 8 1017.2 1016.5 0.0
25/06:00pm 14.7 11.9 6.8 59 3.9 SW 11 19 6 10 1016.8 1016.1 0.0
25/05:30pm 15.4 12.8 5.9 53 4.7 SSW 9 13 5 7 1016.5 1015.8 0.0
25/05:00pm 16.6 13.6 5.9 49 5.3 SSW 11 15 6 8 1016.0 1015.3 0.0
25/04:30pm 17.0 13.3 6.2 49 5.4 SW 15 20 8 11 1015.6 1014.8 0.0
25/04:00pm 18.4 13.6 5.6 43 6.4 SW 20 26 11 14 1015.4 1014.7 0.0
25/03:30pm 19.6 14.4 5.3 39 7.1 WSW 22 28 12 15 1015.2 1014.5 0.0
25/03:00pm 19.8 15.2 5.5 39 7.2 WSW 19 26 10 14 1015.0 1014.3 0.0
25/02:30pm 20.0 14.8 5.6 39 7.3 WSW 22 28 12 15 1015.0 1014.3 0.0
25/02:00pm 19.7 15.1 5.4 39 7.2 SW 19 24 10 13 1014.9 1014.2 0.0
25/01:30pm 19.5 14.7 5.6 40 7.0 WSW 20 28 11 15 1015.0 1014.3 0.0
25/01:00pm 19.0 15.0 6.5 44 6.4 SW 17 24 9 13 1015.0 1014.3 0.0
25/12:30pm 18.5 15.3 7.0 47 5.9 SSW 13 19 7 10 1015.3 1014.6 0.0
25/12:00pm 18.3 15.2 7.1 48 5.7 SSW 13 20 7 11 1015.9 1015.1 0.0
25/11:30am 17.2 14.6 7.8 54 4.9 SW 11 17 6 9 1016.4 1015.7 0.0
25/11:00am 16.5 13.1 9.2 62 3.9 SW 17 26 9 14 1016.8 1016.1 0.0
25/10:30am 15.3 12.2 8.8 65 3.4 SSW 15 20 8 11 1017.1 1016.4 0.0
25/10:00am 15.2 13.1 9.6 69 3.0 SW 11 20 6 11 1017.6 1016.9 0.0
25/09:30am 13.8 11.9 9.0 73 2.5 SW 9 15 5 8 1017.8 1017.1 0.0
25/09:00am 12.6 10.6 8.5 76 2.1 SW 9 15 5 8 1017.8 1017.1 0.0
25/08:30am 11.7 9.1 7.8 77 1.9 W 11 13 6 7 1017.6 1016.9 0.0
25/08:00am 9.8 7.5 7.4 85 1.2 WNW 9 11 5 6 1017.5 1016.8 0.0
25/07:30am 9.0 8.6 8.4 96 0.3 CALM 0 0 0 0 1017.3 1016.6 0.0
25/07:00am 7.3 6.6 6.9 97 0.2 CALM 0 7 0 4 1017.1 1016.4 0.0
25/06:30am 5.6 4.5 5.0 96 0.3 CALM 0 0 0 0 1016.7 1016.0 0.0
25/06:00am 5.3 2.9 4.4 94 0.4 N 6 7 3 4 1016.6 1015.9 0.0
25/05:30am 6.0 3.2 5.0 93 0.4 WSW 9 11 5 6 1015.8 1015.0 0.0
25/05:00am 6.7 3.6 5.7 93 0.5 SW 11 13 6 7 1015.4 1014.7 0.0
25/04:30am 6.8 3.7 5.4 91 0.6 W 11 11 6 6 1015.4 1014.7 0.0
25/04:00am 8.0 5.9 6.5 90 0.7 W 7 9 4 5 1015.3 1014.6 0.0
25/03:30am 8.8 5.5 6.6 86 1.0 W 13 15 7 8 1015.2 1014.5 0.0
25/03:00am 9.6 6.0 6.9 83 1.3 W 15 17 8 9 1014.9 1014.2 0.0
25/02:30am 10.7 8.1 7.6 81 1.5 WNW 11 13 6 7 1015.0 1014.3 0.0
25/02:00am 10.8 8.3 8.0 83 1.4 W 11 13 6 7 1015.0 1014.3 0.0
25/01:30am 10.8 8.6 7.9 82 1.4 WNW 9 11 5 6 1015.0 1014.3 0.0
25/01:00am 10.9 7.9 7.8 81 1.5 W 13 17 7 9 1014.8 1014.1 0.0
25/12:30am 11.0 7.6 7.7 80 1.6 WSW 15 17 8 9 1014.7 1014.0 0.0
25/12:00am 11.0 8.0 7.7 80 1.6 W 13 15 7 8 1014.8 1014.1 0.0
 
Date/Time
EST
Temp
°C
App
Temp
°C
Dew
Point
°C
Rel
Hum
%
Delta-T
°C
Wind Press
QNH
hPa
Press
MSL
hPa
Rain since
9am
mm
Dir  Spd
km/h
Gust
km/h
Spd
kts
Gust
kts
24/11:30pm 11.1 8.1 7.6 79 1.7 W 13 15 7 8 1015.0 1014.3 0.0
24/11:00pm 11.2 8.2 7.5 78 1.8 W 13 17 7 9 1015.2 1014.5 0.0
24/10:30pm 11.0 8.3 7.5 79 1.7 WNW 11 15 6 8 1015.4 1014.7 0.0
24/10:00pm 11.1 8.4 7.2 77 1.9 W 11 13 6 7 1015.6 1014.8 0.0
24/09:30pm 11.2 8.0 6.9 75 2.1 W 13 15 7 8 1015.6 1014.8 0.0
24/09:00pm 11.2 8.7 6.7 74 2.2 WSW 9 13 5 7 1015.6 1014.8 0.0
24/08:30pm 11.4 8.9 6.7 73 2.3 WSW 9 13 5 7 1015.2 1014.5 0.0
24/08:00pm 11.5 7.9 6.8 73 2.3 WSW 15 17 8 9 1015.1 1014.4 0.0
24/07:30pm 11.7 7.6 6.4 70 2.6 WSW 17 20 9 11 1014.9 1014.2 0.0
24/07:00pm 11.7 8.1 6.6 71 2.5 WSW 15 17 8 9 1014.6 1013.9 0.0
24/06:30pm 11.6 7.6 6.5 71 2.5 WSW 17 20 9 11 1014.5 1013.8 0.0
24/06:00pm 11.4 7.3 6.3 71 2.5 WSW 17 20 9 11 1014.0 1013.3 0.0
24/05:30pm 11.3 7.2 6.2 71 2.4 WSW 17 20 9 11 1013.6 1012.8 0.0
24/05:00pm 11.7 6.5 5.6 66 2.9 SW 22 28 12 15 1013.2 1012.4 0.0
24/04:30pm 12.9 6.2 5.8 62 3.4 SW 30 41 16 22 1012.8 1012.1 0.0
24/04:00pm 13.3 6.3 5.9 61 3.6 SW 32 43 17 23 1012.2 1011.5 0.0
24/03:30pm 13.7 7.0 5.8 59 3.8 WSW 30 35 16 19 1011.9 1011.2 0.0
24/03:00pm 13.5 6.5 5.9 60 3.7 WSW 32 41 17 22 1012.1 1011.4 0.0
24/02:30pm 13.2 7.4 6.3 63 3.4 WSW 26 35 14 19 1012.3 1011.6 0.0
24/02:00pm 13.0 6.0 6.1 63 3.3 WSW 32 37 17 20 1012.3 1011.6 0.0
24/01:30pm 13.1 6.1 6.2 63 3.4 SW 32 41 17 22 1012.3 1011.6 0.0
24/01:00pm 12.9 6.4 6.5 65 3.1 SW 30 39 16 21 1012.4 1011.7 0.0
24/12:30pm 12.8 5.9 6.6 66 3.0 WSW 32 39 17 21 1012.8 1012.1 0.0
24/12:00pm 12.4 5.9 6.5 67 2.9 SW 30 39 16 21 1013.1 1012.3 0.0
24/11:30am 12.3 5.8 6.6 68 2.8 SW 30 39 16 21 1013.4 1012.6 0.0
24/11:00am 12.0 5.0 6.1 67 2.8 SW 32 41 17 22 1013.6 1012.8 0.0
24/10:30am 12.2 5.2 5.8 65 3.1 WSW 32 41 17 22 1013.7 1012.9 0.0
24/10:00am 11.6 6.1 6.1 69 2.6 SW 24 32 13 17 1013.7 1012.9 0.0
24/09:30am 10.4 4.8 5.6 72 2.3 WSW 24 32 13 17 1013.7 1012.9 0.0
24/09:00am 8.7 3.8 5.3 79 1.6 WSW 20 30 11 16 1013.5 1012.7 0.0
24/08:30am 7.6 3.2 4.7 82 1.3 WSW 17 20 9 11 1013.7 1012.9 0.0
24/08:00am 7.1 2.3 4.6 84 1.1 W 19 22 10 12 1013.6 1012.8 0.0
24/07:30am 6.7 3.0 4.5 86 1.0 WSW 13 17 7 9 1013.7 1012.9 0.0
24/07:00am 6.3 2.6 4.3 87 0.9 WSW 13 17 7 9 1013.4 1012.6 0.0
24/06:30am 6.2 2.1 4.4 88 0.8 W 15 20 8 11 1013.1 1012.3 0.0
24/06:00am 6.2 2.5 4.4 88 0.8 WSW 13 15 7 8 1012.6 1011.9 0.0
24/05:30am 5.9 1.4 4.2 89 0.7 WSW 17 20 9 11 1012.2 1011.5 0.0
24/05:00am 5.8 2.1 4.3 90 0.7 SW 13 17 7 9 1012.2 1011.5 0.0
24/04:30am 5.9 1.8 4.4 90 0.7 WSW 15 20 8 11 1012.0 1011.3 0.0
24/04:00am 5.6 0.7 4.2 91 0.6 W 19 20 10 11 1011.9 1011.2 0.0
24/03:30am 5.1 0.6 4.2 94 0.4 W 17 20 9 11 1012.1 1011.4 0.0
24/03:00am 4.6 0.4 3.7 94 0.4 W 15 20 8 11 1012.2 1011.5 0.0
24/02:30am 4.1 -0.5 3.7 97 0.2 W 17 20 9 11 1012.5 1011.8 0.0
24/02:00am 3.3 -0.7 2.9 97 0.2 W 13 15 7 8 1012.6 1011.9 0.0
24/01:30am 2.2 -2.0 1.5 95 0.3 W 13 13 7 7 1013.0 1012.2 0.0
24/01:00am 3.1 -0.6 2.4 95 0.3 WSW 11 13 6 7 1013.2 1012.4 0.0
24/12:30am 2.5 -1.7 1.6 94 0.4 WSW 13 13 7 7 1013.3 1012.5 0.0
24/12:00am 3.5 -0.9 2.6 94 0.4 WSW 15 15 8 8 1013.2 1012.4 0.0
 
Date/Time
EST
Temp
°C
App
Temp
°C
Dew
Point
°C
Rel
Hum
%
Delta-T
°C
Wind Press
QNH
hPa
Press
MSL
hPa
Rain since
9am
mm
Dir  Spd
km/h
Gust
km/h
Spd
kts
Gust
kts
23/11:30pm 4.1 0.9 2.8 91 0.5 W 9 13 5 7 1013.4 1012.6 0.0
23/11:00pm 5.1 1.4 4.2 94 0.4 WNW 13 15 7 8 1013.8 1013.1 0.0
23/10:30pm 4.6 1.0 3.1 90 0.6 W 11 15 6 8 1013.8 1013.1 0.0
23/10:00pm 5.4 1.2 3.7 89 0.7 W 15 17 8 9 1013.8 1013.1 0.0
23/09:30pm 5.7 2.3 3.9 88 0.8 NW 11 13 6 7 1013.9 1013.2 0.0
23/09:00pm 6.8 2.9 3.2 78 1.6 SW 13 19 7 10 1013.8 1013.1 0.0
23/08:30pm 7.2 3.3 3.4 77 1.7 SW 13 20 7 11 1013.4 1012.6 0.0
23/08:00pm 7.3 3.0 3.4 76 1.7 SW 15 20 8 11 1013.2 1012.4 0.0
23/07:30pm 7.5 3.7 3.7 77 1.7 SW 13 17 7 9 1012.7 1012.0 0.0
23/07:00pm 8.1 3.1 3.6 73 2.0 SW 19 22 10 12 1012.5 1011.8 0.0
23/06:30pm 8.6 4.0 3.8 72 2.1 SW 17 22 9 12 1011.7 1011.0 0.0
23/06:00pm 9.4 4.8 3.6 67 2.6 SW 17 22 9 12 1011.8 1011.1 0.0
23/05:30pm 9.9 4.9 3.6 65 2.8 SW 19 22 10 12 1011.8 1011.1 0.0
23/05:00pm 10.5 5.3 3.5 62 3.1 SW 20 28 11 15 1011.6 1010.8 0.0

Latest Capital City Observations: Canberra | Sydney | Melbourne | Brisbane | Adelaide | Perth | Hobart | Darwin

Other formats

Comma delimited format used in spreadsheet applications
http://www.bom.gov.au/fwo/IDQ60901/IDQ60901.94552.axf

JavaScript Object Notation format (JSON) in row-major order
http://www.bom.gov.au/fwo/IDQ60901/IDQ60901.94552.json

Data quality

Most of these data are generated automatically and are frequently updated. Quality checks on data are not normally performed. It is possible for incorrect values to appear. Refer to information at About Latest Weather Observations and please check the disclaimer before using these data.